createdAt,value
2018-10-07T00:01:24.649Z,5.10
2018-10-07T00:03:58.399Z,5.08
2018-10-07T00:06:32.130Z,5.22
2018-10-07T00:09:07.145Z,5.50
2018-10-07T00:11:40.668Z,5.33
2018-10-07T00:14:13.196Z,4.92
2018-10-07T00:16:45.397Z,5.30
2018-10-07T00:19:17.112Z,5.45
2018-10-07T00:21:48.383Z,5.35
2018-10-07T00:24:18.966Z,5.10
2018-10-07T00:26:49.597Z,4.95
2018-10-07T00:29:20.283Z,5.20
2018-10-07T00:31:56.250Z,5.03
2018-10-07T00:34:27.013Z,5.30
2018-10-07T00:36:57.790Z,5.22
2018-10-07T00:39:28.414Z,7.87
2018-10-07T00:41:59.045Z,9.85
2018-10-07T00:44:29.651Z,15.53
2018-10-07T00:47:00.274Z,18.37
2018-10-07T00:49:31.021Z,26.75
2018-10-07T00:52:01.680Z,27.87
2018-10-07T00:54:32.317Z,31.17
2018-10-07T00:57:02.937Z,29.35
2018-10-07T00:59:33.582Z,35.58
2018-10-07T01:02:04.245Z,38.60
2018-10-07T01:04:33.731Z,40.92
2018-10-07T01:07:04.673Z,44.42
2018-10-07T01:09:35.374Z,43.55
2018-10-07T01:12:06.524Z,44.88
2018-10-07T01:14:37.158Z,45.35
2018-10-07T01:17:08.014Z,45.73
2018-10-07T01:19:39.041Z,46.48
2018-10-07T01:22:09.662Z,48.25
2018-10-07T01:24:40.295Z,46.95
2018-10-07T01:27:10.906Z,47.00
2018-10-07T01:29:41.560Z,47.62
2018-10-07T01:32:12.174Z,47.95
2018-10-07T01:34:42.841Z,47.50
2018-10-07T01:37:13.473Z,48.85
2018-10-07T01:39:44.129Z,46.45
2018-10-07T01:42:14.795Z,45.88
2018-10-07T01:44:45.449Z,47.80
2018-10-07T01:47:16.081Z,48.17
2018-10-07T01:49:46.710Z,45.30
2018-10-07T01:52:17.326Z,47.48
2018-10-07T01:54:47.957Z,47.85
2018-10-07T01:57:18.570Z,49.27
2018-10-07T01:59:49.219Z,49.45
2018-10-07T02:02:20.074Z,44.55
2018-10-07T02:04:50.685Z,48.02
2018-10-07T02:07:21.698Z,47.05
2018-10-07T02:09:52.583Z,49.58
2018-10-07T02:12:23.201Z,41.60
2018-10-07T02:14:53.827Z,39.75
2018-10-07T02:17:24.470Z,48.20
2018-10-07T02:19:55.090Z,44.08
2018-10-07T02:22:26.090Z,40.12
2018-10-07T02:24:56.885Z,43.05
2018-10-07T02:27:27.855Z,42.38
2018-10-07T02:29:58.498Z,39.53
2018-10-07T02:32:29.118Z,43.02
2018-10-07T02:34:59.778Z,33.35
2018-10-07T02:37:30.441Z,35.80
2018-10-07T02:40:01.275Z,39.98
2018-10-07T02:42:31.881Z,38.45
2018-10-07T02:45:02.566Z,33.83
2018-10-07T02:47:33.152Z,41.40
2018-10-07T02:50:16.881Z,42.98
2018-10-07T02:52:49.404Z,44.03
2018-10-07T02:55:23.345Z,40.78
2018-10-07T02:57:55.181Z,37.78
2018-10-07T03:00:25.821Z,38.42
2018-10-07T03:02:56.770Z,43.73
2018-10-07T03:05:27.402Z,41.98
2018-10-07T03:07:58.032Z,42.23
2018-10-07T03:10:28.658Z,35.40
2018-10-07T03:12:59.312Z,37.30
2018-10-07T03:15:29.915Z,41.00
2018-10-07T03:18:00.562Z,36.08
2018-10-07T03:20:31.166Z,45.15
2018-10-07T03:23:01.799Z,40.85
2018-10-07T03:25:32.407Z,43.87
2018-10-07T03:28:03.079Z,39.08
2018-10-07T03:30:33.704Z,38.42
2018-10-07T03:33:04.525Z,41.48
2018-10-07T03:35:35.174Z,47.83
2018-10-07T03:38:05.837Z,34.23
2018-10-07T03:40:36.446Z,45.30
2018-10-07T03:43:07.097Z,45.28
2018-10-07T03:45:37.720Z,45.00
2018-10-07T03:48:08.359Z,42.25
2018-10-07T03:50:38.997Z,49.33
2018-10-07T03:53:09.614Z,46.75
2018-10-07T03:55:40.265Z,42.65
2018-10-07T03:58:10.902Z,44.83
2018-10-07T04:00:42.237Z,42.17
2018-10-07T04:03:12.870Z,47.88
2018-10-07T04:05:43.892Z,43.23
2018-10-07T04:08:14.701Z,43.55
2018-10-07T04:10:45.344Z,50.05
2018-10-07T04:13:15.958Z,46.95
2018-10-07T04:15:46.618Z,49.53
2018-10-07T04:18:17.250Z,50.80
2018-10-07T04:20:47.886Z,50.67
2018-10-07T04:23:18.528Z,51.33
2018-10-07T04:25:49.380Z,53.23
2018-10-07T04:28:19.966Z,51.45
2018-10-07T04:30:50.670Z,56.65
2018-10-07T04:33:21.502Z,50.23
2018-10-07T04:35:52.149Z,55.48
2018-10-07T04:38:22.830Z,54.50
2018-10-07T04:40:53.486Z,58.05
2018-10-07T04:43:24.119Z,55.83
2018-10-07T04:45:54.765Z,61.02
2018-10-07T04:48:25.350Z,54.77
2018-10-07T04:50:55.982Z,58.65
2018-10-07T04:53:26.829Z,55.70
2018-10-07T04:55:57.690Z,58.90
2018-10-07T04:58:28.306Z,55.60
2018-10-07T05:00:59.013Z,58.10
2018-10-07T05:03:29.638Z,56.33
2018-10-07T05:06:00.656Z,55.00
2018-10-07T05:08:31.286Z,54.88
2018-10-07T05:11:03.262Z,48.85
2018-10-07T05:13:45.297Z,57.25
2018-10-07T05:16:23.110Z,56.50
2018-10-07T05:18:53.738Z,52.78
2018-10-07T05:21:24.365Z,52.13
2018-10-07T05:23:55.310Z,53.63
2018-10-07T05:26:26.894Z,56.95
2018-10-07T05:28:57.616Z,54.33
2018-10-07T05:31:28.230Z,55.73
2018-10-07T05:33:58.904Z,56.35
2018-10-07T05:36:29.689Z,55.30
2018-10-07T05:39:00.318Z,55.03
2018-10-07T05:41:30.953Z,52.03
2018-10-07T05:44:01.599Z,53.55
2018-10-07T05:46:32.438Z,51.68
2018-10-07T05:49:03.217Z,50.35
2018-10-07T05:51:33.820Z,55.03
2018-10-07T05:54:04.462Z,53.87
2018-10-07T05:56:35.097Z,52.58
2018-10-07T05:59:06.625Z,55.23
2018-10-07T06:01:41.024Z,51.98
2018-10-07T06:04:34.749Z,48.15
2018-10-07T06:07:05.446Z,54.03
2018-10-07T06:09:37.253Z,54.75
2018-10-07T06:12:07.946Z,48.13
2018-10-07T06:14:50.021Z,48.42
2018-10-07T06:17:20.821Z,53.52
2018-10-07T06:19:53.583Z,54.25
2018-10-07T06:22:24.584Z,49.77
2018-10-07T06:24:55.217Z,52.78
2018-10-07T06:27:25.858Z,54.50
2018-10-07T06:29:56.623Z,52.35
2018-10-07T06:32:27.681Z,52.55
2018-10-07T06:34:58.295Z,55.40
2018-10-07T06:37:29.295Z,52.08
2018-10-07T06:40:00.049Z,54.30
2018-10-07T06:42:30.774Z,50.08
2018-10-07T06:45:01.417Z,48.70
2018-10-07T06:47:32.078Z,46.37
2018-10-07T06:50:03.307Z,45.40
2018-10-07T06:52:33.986Z,40.98
2018-10-07T06:55:04.652Z,38.20
2018-10-07T06:57:35.305Z,38.15
2018-10-07T07:00:06.843Z,29.75
2018-10-07T07:02:37.521Z,27.17
2018-10-07T07:05:08.174Z,23.57
2018-10-07T07:07:38.772Z,20.25
2018-10-07T07:10:09.411Z,19.92
2018-10-07T07:12:40.022Z,18.48
2018-10-07T07:15:10.658Z,17.32
2018-10-07T07:17:41.265Z,15.03
2018-10-07T07:20:12.101Z,14.25
2018-10-07T07:22:42.900Z,15.05
2018-10-07T07:25:13.553Z,15.40
2018-10-07T07:27:44.166Z,13.55
2018-10-07T07:30:15.151Z,14.50
2018-10-07T07:32:45.754Z,13.25
2018-10-07T07:35:16.393Z,13.18
2018-10-07T07:37:47.009Z,13.65
2018-10-07T07:40:17.706Z,13.83
2018-10-07T07:42:48.572Z,12.43
2018-10-07T07:45:19.245Z,12.93
2018-10-07T07:47:49.901Z,12.00
2018-10-07T07:50:20.526Z,11.70
2018-10-07T07:52:51.380Z,11.97
2018-10-07T07:55:22.007Z,12.45
2018-10-07T07:57:52.849Z,12.23
2018-10-07T08:00:23.476Z,12.33
2018-10-07T08:02:54.505Z,11.55
2018-10-07T08:05:25.109Z,11.03
2018-10-07T08:07:55.750Z,10.25
2018-10-07T08:10:26.698Z,10.25
2018-10-07T08:12:57.335Z,11.08
2018-10-07T08:15:28.095Z,10.15
2018-10-07T08:17:58.943Z,8.10
2018-10-07T08:20:29.554Z,7.58
2018-10-07T08:23:00.177Z,7.50
2018-10-07T08:25:30.787Z,6.85
2018-10-07T08:28:01.418Z,7.53
2018-10-07T08:30:32.041Z,7.42
2018-10-07T08:33:02.656Z,8.15
2018-10-07T08:35:33.303Z,8.45
2018-10-07T08:38:03.894Z,9.38
2018-10-07T08:40:34.511Z,8.95
2018-10-07T08:43:05.096Z,9.23
2018-10-07T08:45:35.725Z,9.53
2018-10-07T08:48:07.014Z,8.78
2018-10-07T08:50:37.645Z,9.75
2018-10-07T08:53:08.577Z,9.50
2018-10-07T08:55:39.222Z,10.05
2018-10-07T08:58:10.034Z,9.93
2018-10-07T09:00:40.625Z,8.68
2018-10-07T09:03:11.266Z,7.10
2018-10-07T09:05:41.860Z,6.10
2018-10-07T09:08:12.518Z,5.30
2018-10-07T09:10:43.121Z,5.67
2018-10-07T09:13:13.769Z,5.58
2018-10-07T09:15:44.461Z,5.78
2018-10-07T09:18:15.265Z,5.87
2018-10-07T09:20:45.897Z,5.12
2018-10-07T09:23:16.698Z,6.00
2018-10-07T09:25:47.662Z,6.50
2018-10-07T09:28:18.295Z,5.40
2018-10-07T09:30:48.976Z,6.03
2018-10-07T09:33:19.589Z,5.95
2018-10-07T09:35:50.203Z,6.28
2018-10-07T09:38:20.834Z,5.83
2018-10-07T09:40:51.481Z,6.20
2018-10-07T09:43:22.096Z,6.80
2018-10-07T09:45:53.613Z,6.10
2018-10-07T09:48:24.254Z,6.08
2018-10-07T09:50:55.203Z,7.08
2018-10-07T09:53:25.808Z,6.62
2018-10-07T09:55:56.483Z,6.47
2018-10-07T09:58:27.246Z,6.50
2018-10-07T10:00:57.856Z,7.08
2018-10-07T10:03:28.446Z,6.35
2018-10-07T10:05:59.075Z,6.67
2018-10-07T10:08:29.678Z,7.37
2018-10-07T10:11:00.326Z,6.42
2018-10-07T10:13:31.125Z,6.20
2018-10-07T10:16:01.797Z,6.47
2018-10-07T10:18:53.094Z,7.00
2018-10-07T10:21:32.825Z,6.67
2018-10-07T10:24:12.210Z,6.60
2018-10-07T10:28:05.178Z,6.10
2018-10-07T10:31:44.611Z,6.05
2018-10-07T10:34:33.490Z,6.22
2018-10-07T10:37:05.394Z,5.83
2018-10-07T10:39:58.896Z,5.85
2018-10-07T10:43:49.638Z,5.78
2018-10-07T10:47:16.091Z,6.28
2018-10-07T10:50:03.059Z,6.12
2018-10-07T10:53:42.641Z,5.53
2018-10-07T10:56:29.629Z,5.67
2018-10-07T10:59:07.516Z,5.35
2018-10-07T11:01:53.777Z,5.60
2018-10-07T11:04:27.359Z,4.83
2018-10-07T11:07:09.417Z,5.20
2018-10-07T11:09:50.870Z,5.60
2018-10-07T11:12:45.007Z,5.50
2018-10-07T11:15:27.146Z,5.10
2018-10-07T11:18:09.295Z,4.62
2018-10-07T11:22:54.943Z,4.72
2018-10-07T11:26:07.339Z,4.72
2018-10-07T11:28:46.323Z,4.58
2018-10-07T11:31:39.495Z,4.90
2018-10-07T11:36:25.081Z,4.25
2018-10-07T11:39:08.302Z,4.03
2018-10-07T11:42:23.495Z,4.37
2018-10-07T11:44:58.534Z,4.12
2018-10-07T11:47:40.470Z,4.10
2018-10-07T11:50:16.390Z,4.25
2018-10-07T11:52:59.338Z,4.47
2018-10-07T11:55:30.035Z,3.80
2018-10-07T11:58:00.673Z,3.60
2018-10-07T12:00:31.300Z,3.60
2018-10-07T12:03:01.898Z,3.83
2018-10-07T12:05:32.509Z,3.58
2018-10-07T12:08:03.112Z,3.77
2018-10-07T12:10:33.721Z,3.87
2018-10-07T12:13:04.320Z,4.20
2018-10-07T12:15:34.942Z,4.05
2018-10-07T12:18:06.115Z,3.90
2018-10-07T12:20:36.737Z,4.47
2018-10-07T12:23:07.698Z,3.70
2018-10-07T12:25:38.319Z,3.58
2018-10-07T12:28:09.358Z,3.70
2018-10-07T12:30:39.981Z,3.72
2018-10-07T12:33:10.577Z,3.40
2018-10-07T12:35:41.237Z,3.45
2018-10-07T12:38:12.225Z,3.60
2018-10-07T12:40:43.066Z,3.10
2018-10-07T12:43:13.670Z,3.12
2018-10-07T12:45:44.287Z,2.98
2018-10-07T12:48:14.882Z,3.08
2018-10-07T12:50:45.654Z,2.62
2018-10-07T12:53:16.294Z,2.40
2018-10-07T12:55:46.878Z,2.58
2018-10-07T12:58:17.494Z,2.20
2018-10-07T13:00:48.088Z,2.50
2018-10-07T13:03:18.718Z,2.08
2018-10-07T13:05:49.307Z,1.80
2018-10-07T13:08:19.918Z,1.98
2018-10-07T13:10:50.525Z,1.87
2018-10-07T13:13:21.330Z,1.50
2018-10-07T13:15:51.931Z,1.30
2018-10-07T13:18:22.769Z,1.75
2018-10-07T13:20:53.632Z,2.00
2018-10-07T13:23:24.437Z,2.12
2018-10-07T13:25:55.095Z,1.60
2018-10-07T13:28:25.917Z,1.72
2018-10-07T13:30:56.729Z,1.50
2018-10-07T13:33:27.835Z,1.87
2018-10-07T13:35:58.626Z,1.40
2018-10-07T13:38:29.219Z,2.10
2018-10-07T13:41:00.241Z,1.70
2018-10-07T13:43:30.841Z,1.70
2018-10-07T13:46:01.468Z,1.35
2018-10-07T13:48:32.063Z,1.60
2018-10-07T13:51:02.695Z,1.45
2018-10-07T13:53:33.332Z,1.70
2018-10-07T13:56:04.122Z,1.50
2018-10-07T13:58:34.718Z,1.60
2018-10-07T14:01:05.670Z,1.57
2018-10-07T14:03:36.345Z,1.50
2018-10-07T14:06:07.486Z,1.32
2018-10-07T14:08:38.136Z,1.40
2018-10-07T14:11:08.705Z,1.45
2018-10-07T14:13:39.325Z,1.67
2018-10-07T14:16:09.970Z,1.30
2018-10-07T14:18:40.582Z,1.65
2018-10-07T14:21:11.167Z,1.57
2018-10-07T14:23:41.793Z,1.62
2018-10-07T14:26:12.702Z,1.40
2018-10-07T14:28:43.308Z,1.62
2018-10-07T14:31:13.877Z,1.20
2018-10-07T14:33:44.498Z,1.82
2018-10-07T14:36:15.217Z,1.50
2018-10-07T14:38:45.810Z,1.35
2018-10-07T14:41:16.410Z,1.45
2018-10-07T14:43:47.049Z,1.20
2018-10-07T14:46:17.630Z,1.40
2018-10-07T14:48:48.244Z,1.40
2018-10-07T14:51:18.809Z,1.20
2018-10-07T14:53:49.426Z,1.15
2018-10-07T14:56:20.014Z,1.37
2018-10-07T14:58:50.633Z,1.27
2018-10-07T15:01:21.434Z,1.30
2018-10-07T15:03:52.021Z,1.52
2018-10-07T15:06:22.629Z,1.40
2018-10-07T15:08:53.189Z,1.20
2018-10-07T15:11:23.802Z,1.42
2018-10-07T15:13:54.406Z,1.12
2018-10-07T15:16:25.023Z,1.52
2018-10-07T15:18:55.606Z,1.20
2018-10-07T15:21:26.214Z,1.00
2018-10-07T15:23:57.061Z,0.95
2018-10-07T15:26:27.805Z,1.22
2018-10-07T15:28:58.510Z,0.90
2018-10-07T15:31:29.117Z,1.07
2018-10-07T15:33:59.704Z,1.25
2018-10-07T15:36:30.315Z,1.50
2018-10-07T15:39:01.114Z,1.10
2018-10-07T15:41:31.702Z,1.00
2018-10-07T15:44:02.574Z,1.10
2018-10-07T15:46:33.161Z,1.00
2018-10-07T15:49:04.098Z,1.05
2018-10-07T15:51:34.933Z,1.10
2018-10-07T15:54:05.878Z,0.90
2018-10-07T15:56:36.465Z,0.90
2018-10-07T15:59:07.282Z,1.05
2018-10-07T16:01:37.850Z,0.90
2018-10-07T16:04:08.474Z,1.00
2018-10-07T16:06:39.052Z,0.88
2018-10-07T16:09:10.219Z,1.20
2018-10-07T16:11:40.789Z,1.20
2018-10-07T16:14:11.397Z,1.17
2018-10-07T16:16:41.986Z,1.20
2018-10-07T16:19:12.602Z,1.20
2018-10-07T16:21:43.530Z,1.35
2018-10-07T16:24:14.170Z,1.20
2018-10-07T16:26:45.032Z,1.22
2018-10-07T16:29:15.760Z,0.98
2018-10-07T16:31:46.338Z,1.37
2018-10-07T16:34:16.953Z,1.10
2018-10-07T16:36:47.704Z,1.27
2018-10-07T16:39:18.365Z,1.27
2018-10-07T16:41:49.115Z,1.15
2018-10-07T16:44:19.681Z,1.12
2018-10-07T16:46:50.294Z,1.50
2018-10-07T16:49:20.874Z,1.50
2018-10-07T16:51:51.470Z,1.37
2018-10-07T16:54:22.060Z,1.75
2018-10-07T16:56:52.661Z,1.60
2018-10-07T16:59:23.276Z,1.70
2018-10-07T17:01:53.954Z,1.37
2018-10-07T17:04:24.569Z,1.72
2018-10-07T17:06:55.150Z,1.70
2018-10-07T17:09:25.752Z,1.82
2018-10-07T17:11:56.329Z,1.62
2018-10-07T17:14:26.949Z,1.77
2018-10-07T17:16:57.518Z,1.80
2018-10-07T17:19:28.126Z,1.80
2018-10-07T17:21:58.829Z,1.90
2018-10-07T17:24:29.463Z,2.10
2018-10-07T17:27:00.601Z,2.20
2018-10-07T17:29:31.446Z,2.35
2018-10-07T17:32:02.179Z,2.20
2018-10-07T17:34:32.817Z,2.05
2018-10-07T17:37:03.399Z,2.10
2018-10-07T17:39:34.022Z,1.90
2018-10-07T17:42:04.659Z,2.70
2018-10-07T17:44:35.291Z,3.30
2018-10-07T17:47:06.116Z,2.90
2018-10-07T17:49:36.707Z,3.33
2018-10-07T17:52:07.322Z,3.12
2018-10-07T17:54:37.972Z,3.30
2018-10-07T17:57:08.762Z,3.70
2018-10-07T17:59:39.370Z,3.52
2018-10-07T18:02:09.965Z,3.50
2018-10-07T18:04:40.586Z,3.37
2018-10-07T18:07:11.589Z,3.17
2018-10-07T18:09:42.191Z,3.52
2018-10-07T18:12:12.818Z,3.45
2018-10-07T18:14:43.430Z,3.60
2018-10-07T18:17:14.234Z,4.10
2018-10-07T18:19:45.030Z,4.00
2018-10-07T18:22:15.859Z,3.52
2018-10-07T18:24:46.569Z,3.40
2018-10-07T18:27:17.201Z,3.20
2018-10-07T18:29:47.825Z,3.02
2018-10-07T18:32:18.426Z,4.00
2018-10-07T18:34:49.042Z,3.80
2018-10-07T18:37:19.678Z,4.08
2018-10-07T18:39:50.298Z,3.77
2018-10-07T18:42:20.947Z,3.30
2018-10-07T18:44:51.530Z,3.12
2018-10-07T18:47:22.161Z,3.40
2018-10-07T18:49:52.781Z,3.05
2018-10-07T18:52:23.378Z,3.08
2018-10-07T18:54:53.994Z,3.42
2018-10-07T18:57:24.585Z,3.22
2018-10-07T18:59:55.205Z,3.77
2018-10-07T19:02:25.917Z,4.12
2018-10-07T19:04:56.642Z,3.45
2018-10-07T19:07:27.222Z,3.65
2018-10-07T19:09:57.842Z,4.00
2018-10-07T19:12:28.459Z,4.00
2018-10-07T19:14:59.077Z,4.03
2018-10-07T19:17:29.705Z,3.85
2018-10-07T19:20:00.722Z,3.90
2018-10-07T19:22:31.322Z,3.90
2018-10-07T19:25:01.933Z,3.27
2018-10-07T19:27:32.539Z,3.75
2018-10-07T19:30:03.713Z,3.72
2018-10-07T19:32:34.285Z,3.27
2018-10-07T19:35:05.275Z,7.60
2018-10-07T19:37:35.903Z,7.75
2018-10-07T19:40:06.864Z,7.55
2018-10-07T19:42:37.520Z,6.80
2018-10-07T19:45:08.156Z,6.03
2018-10-07T19:47:38.966Z,5.00
2018-10-07T19:50:09.591Z,3.90
2018-10-07T19:52:40.291Z,4.50
2018-10-07T19:55:11.028Z,4.95
2018-10-07T19:57:41.677Z,4.47
2018-10-07T20:00:12.278Z,4.30
2018-10-07T20:02:42.908Z,4.65
2018-10-07T20:05:13.523Z,6.83
2018-10-07T20:07:44.147Z,7.67
2018-10-07T20:10:14.741Z,7.37
2018-10-07T20:12:45.349Z,5.40
2018-10-07T20:15:15.976Z,5.05
2018-10-07T20:17:46.586Z,3.95
2018-10-07T20:20:17.606Z,4.53
2018-10-07T20:22:48.246Z,4.58
2018-10-07T20:25:18.825Z,4.12
2018-10-07T20:27:49.429Z,4.17
2018-10-07T20:30:20.032Z,3.72
2018-10-07T20:32:50.649Z,3.50
2018-10-07T20:35:21.278Z,4.28
2018-10-07T20:37:52.323Z,4.10
2018-10-07T20:40:23.054Z,3.85
2018-10-07T20:42:53.754Z,3.98
2018-10-07T20:45:24.405Z,3.42
2018-10-07T20:47:55.005Z,3.40
2018-10-07T20:50:25.620Z,3.30
2018-10-07T20:52:56.406Z,3.27
2018-10-07T20:55:27.037Z,3.80
2018-10-07T20:57:57.617Z,4.22
2018-10-07T21:00:28.250Z,3.55
2018-10-07T21:02:59.134Z,2.77
2018-10-07T21:05:29.895Z,2.77
2018-10-07T21:08:00.482Z,3.00
2018-10-07T21:10:31.088Z,3.10
2018-10-07T21:13:01.690Z,3.30
2018-10-07T21:15:32.310Z,3.50
2018-10-07T21:18:02.921Z,3.47
2018-10-07T21:20:33.525Z,3.00
2018-10-07T21:23:04.154Z,2.98
2018-10-07T21:25:34.726Z,3.10
2018-10-07T21:28:05.518Z,3.85
2018-10-07T21:30:36.102Z,3.20
2018-10-07T21:33:06.705Z,3.52
2018-10-07T21:35:37.341Z,3.22
2018-10-07T21:38:07.939Z,2.98
2018-10-07T21:40:38.552Z,3.22
2018-10-07T21:43:09.370Z,2.98
2018-10-07T21:45:40.003Z,3.08
2018-10-07T21:48:10.755Z,3.52
2018-10-07T21:50:41.541Z,3.25
2018-10-07T21:53:12.128Z,2.85
2018-10-07T21:55:42.942Z,2.80
2018-10-07T21:58:13.514Z,2.95
2018-10-07T22:00:44.121Z,3.10
2018-10-07T22:03:14.759Z,3.20
2018-10-07T22:05:45.386Z,2.70
2018-10-07T22:08:16.012Z,3.47
2018-10-07T22:10:46.655Z,2.90
2018-10-07T22:13:17.257Z,2.98
2018-10-07T22:15:47.830Z,3.10
2018-10-07T22:18:18.445Z,2.40
2018-10-07T22:20:49.058Z,2.52
2018-10-07T22:23:19.706Z,3.00
2018-10-07T22:25:50.894Z,2.52
2018-10-07T22:28:21.497Z,2.50
2018-10-07T22:30:52.117Z,2.72
2018-10-07T22:33:22.753Z,2.40
2018-10-07T22:35:53.348Z,2.35
2018-10-07T22:38:24.180Z,2.17
2018-10-07T22:40:54.764Z,2.87
2018-10-07T22:43:25.385Z,2.72
2018-10-07T22:45:55.978Z,2.90
2018-10-07T22:48:26.587Z,3.10
2018-10-07T22:50:57.172Z,2.70
2018-10-07T22:53:27.789Z,3.25
2018-10-07T22:55:58.717Z,2.72
2018-10-07T22:58:29.317Z,3.27
2018-10-07T23:00:59.909Z,2.75
2018-10-07T23:03:30.543Z,2.87
2018-10-07T23:06:01.183Z,3.37
2018-10-07T23:08:31.781Z,3.30
2018-10-07T23:11:02.843Z,3.70
2018-10-07T23:13:33.433Z,3.15
2018-10-07T23:16:04.406Z,3.02
2018-10-07T23:18:35.022Z,3.30
2018-10-07T23:21:05.675Z,3.60
2018-10-07T23:23:36.262Z,3.30
2018-10-07T23:26:07.211Z,3.47
2018-10-07T23:28:37.872Z,3.12
2018-10-07T23:31:08.866Z,3.60
2018-10-07T23:33:39.473Z,3.17
2018-10-07T23:36:10.342Z,3.00
2018-10-07T23:38:40.994Z,3.45
2018-10-07T23:41:11.637Z,3.52
2018-10-07T23:43:42.274Z,3.40
2018-10-07T23:46:12.922Z,3.10
2018-10-07T23:48:43.848Z,3.10
2018-10-07T23:51:14.489Z,3.15
2018-10-07T23:53:45.073Z,2.87
2018-10-07T23:56:15.712Z,2.95
2018-10-07T23:58:46.309Z,3.42
